Time;durP1;ratioP1;P1;durP2;ratioP2;P2;SDS_P1;SDS_P2;PMS_P1;PMS_P2;Temp;Humidity;BMP_temperature;BMP_pressure;BME280_temperature;BME280_humidity;BME280_pressure;Samples;Min_cycle;Max_cycle;Signal;HPM_P1;HPM_P2
2024/01/12 00:01:18;;;;;;;1.40;0.17;;;;;;;-0.87;70.35;102293.81;5042469;28;20053;-74
2024/01/12 00:03:45;;;;;;;1.10;0.20;;;;;;;-0.87;70.03;102283.53;5038562;28;20060;-74
2024/01/12 00:06:12;;;;;;;0.40;0.10;;;;;;;-0.90;70.52;102277.38;5038365;28;20061;-74
2024/01/12 00:08:39;;;;;;;0.30;0.10;;;;;;;-0.83;70.33;102274.28;5040025;28;20750;-74
2024/01/12 00:11:08;;;;;;;1.00;0.17;;;;;;;-0.85;70.36;102271.66;5038262;28;20067;-75
2024/01/12 00:13:37;;;;;;;0.20;0.10;;;;;;;-0.82;70.61;102265.78;5040891;28;20053;-74
2024/01/12 00:16:07;;;;;;;2.30;0.20;;;;;;;-0.80;70.51;102259.03;5038233;28;20095;-73
2024/01/12 00:18:34;;;;;;;0.20;0.20;;;;;;;-0.80;70.44;102254.78;5043121;28;20056;-72
2024/01/12 00:21:01;;;;;;;0.40;0.10;;;;;;;-0.78;70.69;102245.41;5038428;28;20076;-72
2024/01/12 00:23:28;;;;;;;0.35;0.10;;;;;;;-0.79;70.54;102241.09;5041289;28;20095;-74
2024/01/12 00:25:59;;;;;;;0.30;0.10;;;;;;;-0.78;70.43;102224.00;5044017;28;20503;-75
2024/01/12 00:28:26;;;;;;;2.38;0.20;;;;;;;-0.75;71.18;102220.69;5042569;28;20667;-74
2024/01/12 00:30:55;;;;;;;2.42;0.20;;;;;;;-0.75;70.91;102215.53;5043990;28;20083;-74
2024/01/12 00:33:22;;;;;;;0.98;0.10;;;;;;;-0.78;70.73;102206.00;5047575;28;20116;-74
2024/01/12 00:35:49;;;;;;;0.60;0.10;;;;;;;-0.75;71.20;102190.72;5038150;28;20072;-74
2024/01/12 00:38:16;;;;;;;0.63;0.10;;;;;;;-0.71;71.08;102191.75;5041066;28;20196;-74
2024/01/12 00:40:43;;;;;;;0.43;0.13;;;;;;;-0.72;70.73;102179.69;5042489;28;20147;-74
2024/01/12 00:43:10;;;;;;;0.73;0.10;;;;;;;-0.71;71.31;102176.34;5043364;28;20119;-74
2024/01/12 00:45:37;;;;;;;0.43;0.10;;;;;;;-0.70;70.82;102175.53;5043221;28;20094;-74
2024/01/12 00:48:07;;;;;;;0.25;0.10;;;;;;;-0.69;71.10;102167.88;5041395;28;20063;-74
2024/01/12 00:50:34;;;;;;;0.32;0.30;;;;;;;-0.69;70.53;102160.16;5042790;28;20052;-74
2024/01/12 00:53:01;;;;;;;1.15;0.10;;;;;;;-0.68;70.92;102145.63;5047517;28;20163;-74
2024/01/12 00:55:28;;;;;;;1.95;0.10;;;;;;;-0.67;71.28;102147.38;5039430;28;20086;-74
2024/01/12 00:57:55;;;;;;;1.02;0.30;;;;;;;-0.67;71.47;102139.69;5046097;28;20075;-73
2024/01/12 01:00:22;;;;;;;1.27;0.10;;;;;;;-0.65;70.98;102141.50;5042063;28;20128;-74
2024/01/12 01:02:49;;;;;;;0.35;0.10;;;;;;;-0.64;71.41;102138.13;5043591;28;20124;-74
2024/01/12 01:05:18;;;;;;;0.50;0.10;;;;;;;-0.66;71.06;102118.28;5039903;28;20467;-74
2024/01/12 01:07:44;;;;;;;0.45;0.10;;;;;;;-0.62;70.88;102120.22;5042131;28;20087;-74
2024/01/12 01:10:13;;;;;;;0.30;0.10;;;;;;;-0.62;70.67;102097.94;5042892;28;20156;-74
2024/01/12 01:12:40;;;;;;;0.30;0.10;;;;;;;-0.61;71.31;102088.53;5041934;28;20046;-74
2024/01/12 01:15:09;;;;;;;1.35;0.63;;;;;;;-0.61;71.43;102089.41;5042412;28;20095;-74
2024/01/12 01:17:36;;;;;;;0.32;0.10;;;;;;;-0.60;71.48;102086.06;5043026;28;20064;-74
2024/01/12 01:20:03;;;;;;;0.25;0.10;;;;;;;-0.59;71.12;102082.66;5045526;28;20077;-74
2024/01/12 01:22:34;;;;;;;0.80;0.10;;;;;;;-0.58;71.83;102078.38;5041836;28;20397;-74
2024/01/12 01:25:01;;;;;;;1.20;0.10;;;;;;;-0.58;71.88;102061.28;5037792;28;20049;-70
2024/01/12 01:27:28;;;;;;;0.77;0.10;;;;;;;-0.57;71.90;102057.03;5040915;28;20124;-70
2024/01/12 01:29:55;;;;;;;0.45;0.10;;;;;;;-0.57;71.68;102049.31;5037885;28;20054;-70
2024/01/12 01:32:22;;;;;;;0.98;0.10;;;;;;;-0.56;71.68;102054.50;5043170;28;20084;-71
2024/01/12 01:34:48;;;;;;;0.17;0.17;;;;;;;-0.55;71.67;102043.41;5042529;28;20092;-74
2024/01/12 01:37:15;;;;;;;2.05;0.10;;;;;;;-0.53;72.17;102035.78;5043266;28;20080;-74
2024/01/12 01:39:44;;;;;;;0.70;0.47;;;;;;;-0.59;71.73;102026.09;5039317;28;20076;-73
2024/01/12 01:42:11;;;;;;;1.40;0.05;;;;;;;-0.52;71.81;102024.66;5043072;28;20519;-74
2024/01/12 01:44:38;;;;;;;0.10;0.10;;;;;;;-0.52;72.30;102010.94;5036092;28;20123;-74
2024/01/12 01:47:05;;;;;;;1.75;0.17;;;;;;;-0.51;71.87;102010.16;5041430;28;20084;-74
2024/01/12 01:49:32;;;;;;;0.68;0.10;;;;;;;-0.50;72.31;102011.91;5042209;28;20782;-74
2024/01/12 01:51:59;;;;;;;0.10;0.10;;;;;;;-0.51;72.08;101994.72;5043706;28;20080;-74
2024/01/12 01:54:27;;;;;;;0.70;0.10;;;;;;;-0.47;72.48;102009.44;5042506;28;20168;-74
2024/01/12 01:56:56;;;;;;;1.95;0.30;;;;;;;-0.47;72.06;101997.47;5040884;28;20092;-74
2024/01/12 01:59:24;;;;;;;3.10;0.00;;;;;;;-0.46;71.84;101994.09;5038292;28;20124;-74
2024/01/12 02:01:51;;;;;;;0.10;0.00;;;;;;;-0.51;72.54;101980.16;5042318;28;20083;-74
2024/01/12 02:04:18;;;;;;;0.45;0.45;;;;;;;-0.44;72.83;101994.16;5041480;28;20448;-74
2024/01/12 02:06:45;;;;;;;0.35;0.10;;;;;;;-0.44;72.27;101981.28;5041928;28;20136;-74
2024/01/12 02:09:13;;;;;;;0.10;0.10;;;;;;;-0.44;72.30;101973.56;5041477;28;20114;-74
2024/01/12 02:11:39;;;;;;;0.13;0.10;;;;;;;-0.43;72.28;101965.03;5042704;28;20077;-74
2024/01/12 02:14:08;;;;;;;0.20;0.10;;;;;;;-0.40;72.57;101962.63;5041850;28;20506;-74
2024/01/12 02:16:36;;;;;;;1.48;0.00;;;;;;;-0.41;73.12;101959.16;5041535;28;20041;-74
2024/01/12 02:19:03;;;;;;;0.17;0.10;;;;;;;-0.39;73.20;101948.94;5045083;28;20156;-74
2024/01/12 02:21:31;;;;;;;0.17;0.10;;;;;;;-0.40;72.96;101942.94;5036499;28;20127;-74
2024/01/12 02:23:58;;;;;;;0.63;0.10;;;;;;;-0.37;73.24;101926.75;5039541;28;20077;-74
2024/01/12 02:26:26;;;;;;;0.47;0.10;;;;;;;-0.36;73.14;101925.91;5041156;28;20080;-74
2024/01/12 02:28:53;;;;;;;0.43;0.10;;;;;;;-0.37;73.23;101912.19;5041229;28;20125;-74
2024/01/12 02:31:20;;;;;;;2.03;0.10;;;;;;;-0.35;72.66;101902.84;5040750;28;20132;-74
2024/01/12 02:33:49;;;;;;;0.10;0.10;;;;;;;-0.35;73.27;101905.44;5036948;28;20129;-74
2024/01/12 02:36:16;;;;;;;0.15;0.10;;;;;;;-0.34;72.90;101902.03;5037550;28;20055;-74
2024/01/12 02:38:50;;;;;;;0.20;0.10;;;;;;;-0.33;73.29;101897.75;5042841;28;20076;-75
2024/01/12 02:41:18;;;;;;;1.60;0.20;;;;;;;-0.30;72.88;101900.44;5042041;28;20127;-74
2024/01/12 02:43:45;;;;;;;0.22;0.10;;;;;;;-0.30;72.92;101886.72;5043052;28;20049;-84
2024/01/12 02:46:12;;;;;;;0.88;0.10;;;;;;;-0.29;73.38;101880.75;5051032;28;20048;-84
2024/01/12 02:48:39;;;;;;;6.07;0.20;;;;;;;-0.28;73.27;101872.22;5048881;28;20076;-84
2024/01/12 02:51:06;;;;;;;0.10;0.10;;;;;;;-0.29;72.74;101866.19;5045458;28;20685;-84
2024/01/12 02:53:33;;;;;;;0.22;0.03;;;;;;;-0.27;72.97;101854.28;5050290;28;20085;-85
2024/01/12 02:56:01;;;;;;;0.10;0.10;;;;;;;-0.26;73.40;101852.56;5051464;28;20124;-83
2024/01/12 02:58:28;;;;;;;0.85;0.20;;;;;;;-0.26;73.61;101838.03;5050829;28;20483;-84
2024/01/12 03:00:55;;;;;;;0.10;0.10;;;;;;;-0.24;73.07;101835.53;5051691;28;20094;-84
2024/01/12 03:03:22;;;;;;;0.28;0.10;;;;;;;-0.24;73.33;101836.38;5047906;28;21428;-84
2024/01/12 03:05:50;;;;;;;0.30;0.10;;;;;;;-0.22;73.91;101833.88;5048215;28;20041;-84
2024/01/12 03:08:17;;;;;;;0.47;0.10;;;;;;;-0.22;73.37;101829.63;5052563;28;20545;-84
2024/01/12 03:10:44;;;;;;;0.22;0.10;;;;;;;-0.19;73.44;101831.44;5050072;28;20045;-84
2024/01/12 03:13:12;;;;;;;0.52;0.10;;;;;;;-0.18;73.42;101830.59;5044043;28;20072;-84
2024/01/12 03:15:39;;;;;;;0.40;0.10;;;;;;;-0.18;74.04;101823.75;5052040;28;20053;-84
2024/01/12 03:18:06;;;;;;;0.20;0.10;;;;;;;-0.15;73.52;101825.56;5047671;28;20045;-85
2024/01/12 03:20:33;;;;;;;0.25;0.10;;;;;;;-0.15;73.70;101811.03;5050523;28;20683;-84
2024/01/12 03:23:00;;;;;;;0.10;0.10;;;;;;;-0.15;73.31;101810.13;5044098;28;20107;-84
2024/01/12 03:25:27;;;;;;;0.35;0.10;;;;;;;-0.12;73.32;101799.97;5048390;28;20371;-84
2024/01/12 03:27:54;;;;;;;0.20;0.05;;;;;;;-0.14;73.75;101793.91;5049322;28;20073;-84
2024/01/12 03:30:22;;;;;;;0.22;0.20;;;;;;;-0.10;74.12;101798.34;5051076;28;20148;-84
2024/01/12 03:32:49;;;;;;;0.63;0.10;;;;;;;-0.08;74.16;101791.56;5056330;28;20079;-84
2024/01/12 03:35:16;;;;;;;0.32;0.32;;;;;;;-0.07;73.60;101788.16;5051436;28;20109;-84
2024/01/12 03:37:43;;;;;;;0.85;0.20;;;;;;;-0.06;73.47;101773.59;5045894;28;20124;-84
2024/01/12 03:40:11;;;;;;;0.35;0.10;;;;;;;-0.07;73.36;101757.28;5051517;28;20073;-84
2024/01/12 03:42:38;;;;;;;0.10;0.00;;;;;;;-0.04;73.89;101767.69;5052830;28;20483;-84
2024/01/12 03:45:06;;;;;;;0.20;0.00;;;;;;;-0.06;73.75;101758.16;5042118;28;20080;-73
2024/01/12 03:47:35;;;;;;;0.43;0.10;;;;;;;-0.01;74.19;101742.06;5040195;28;20084;-72
2024/01/12 03:50:02;;;;;;;0.55;0.10;;;;;;;0.00;73.45;101738.69;5039413;28;20049;-73
2024/01/12 03:52:29;;;;;;;0.22;0.10;;;;;;;-0.01;73.69;101734.34;5036391;28;20088;-72
2024/01/12 03:54:56;;;;;;;0.20;0.00;;;;;;;0.02;73.49;101747.31;5039677;28;20135;-74
2024/01/12 03:57:23;;;;;;;0.28;0.10;;;;;;;0.03;73.38;101746.53;5039418;28;20138;-74
2024/01/12 03:59:50;;;;;;;0.10;0.10;;;;;;;0.02;73.98;101731.88;5046605;28;20444;-73
2024/01/12 04:02:17;;;;;;;1.05;0.10;;;;;;;0.04;74.02;101719.09;5046871;28;20155;-74
2024/01/12 04:04:45;;;;;;;0.30;0.00;;;;;;;0.04;74.20;101719.97;5042473;28;20436;-74
2024/01/12 04:07:12;;;;;;;0.22;0.10;;;;;;;0.05;73.45;101714.00;5041088;28;20141;-74
2024/01/12 04:09:39;;;;;;;0.20;0.10;;;;;;;0.04;73.81;101699.38;5042695;28;20133;-74
2024/01/12 04:12:07;;;;;;;0.20;0.03;;;;;;;0.07;73.89;101694.34;5041640;28;20077;-74
2024/01/12 04:14:34;;;;;;;1.23;0.10;;;;;;;0.07;73.65;101676.31;5047047;28;20076;-74
2024/01/12 04:17:01;;;;;;;0.10;0.00;;;;;;;0.07;74.31;101678.91;5044548;28;20518;-74
2024/01/12 04:19:28;;;;;;;0.45;0.10;;;;;;;0.10;73.57;101672.97;5044035;28;20077;-74
2024/01/12 04:21:56;;;;;;;0.65;0.00;;;;;;;0.11;74.27;101674.72;5043443;28;20080;-74
2024/01/12 04:24:23;;;;;;;0.10;0.00;;;;;;;0.12;73.48;101671.34;5042700;28;20053;-74
2024/01/12 04:26:50;;;;;;;0.10;0.00;;;;;;;0.12;73.71;101664.50;5044185;28;20072;-74
2024/01/12 04:29:17;;;;;;;0.10;0.00;;;;;;;0.12;73.54;101659.34;5043850;28;20099;-74
2024/01/12 04:31:44;;;;;;;0.35;0.00;;;;;;;0.15;73.67;101660.28;5043137;28;20576;-75
2024/01/12 04:34:11;;;;;;;0.22;0.00;;;;;;;0.15;73.93;101652.56;5043315;28;20041;-75
2024/01/12 04:36:38;;;;;;;0.80;0.00;;;;;;;0.16;73.49;101644.00;5043650;28;20072;-74
2024/01/12 04:39:06;;;;;;;0.10;0.00;;;;;;;0.19;73.83;101638.97;5042930;28;20072;-74
2024/01/12 04:41:33;;;;;;;0.00;0.00;;;;;;;0.19;73.44;101633.81;5042715;28;20087;-75
2024/01/12 04:44:00;;;;;;;0.90;0.00;;;;;;;0.17;73.69;101613.19;5041501;28;20136;-74
2024/01/12 04:46:27;;;;;;;0.20;0.00;;;;;;;0.21;73.83;101616.75;5043053;28;20076;-74
2024/01/12 04:48:54;;;;;;;0.10;0.00;;;;;;;0.23;73.89;101617.69;5047858;28;20045;-75
2024/01/12 04:51:21;;;;;;;0.55;0.00;;;;;;;0.23;74.18;101610.81;5040361;28;20044;-74
2024/01/12 04:53:48;;;;;;;2.05;0.03;;;;;;;0.24;73.56;101609.13;5042231;28;20081;-73
2024/01/12 04:56:17;;;;;;;0.45;0.00;;;;;;;0.26;73.68;101589.47;5041725;28;20495;-73
2024/01/12 04:58:44;;;;;;;0.55;0.00;;;;;;;0.27;73.53;101588.63;5043007;28;20045;-73
2024/01/12 05:01:11;;;;;;;0.13;0.00;;;;;;;0.29;73.37;101592.13;5043317;28;20123;-73
2024/01/12 05:03:38;;;;;;;1.48;0.00;;;;;;;0.29;73.44;101586.97;5041342;28;20500;-74
2024/01/12 05:06:06;;;;;;;0.00;0.00;;;;;;;0.31;73.29;101569.91;5042292;28;20124;-75
2024/01/12 05:08:34;;;;;;;0.00;0.00;;;;;;;0.32;73.55;101571.63;5040884;28;20135;-74
2024/01/12 05:11:01;;;;;;;1.55;0.00;;;;;;;0.33;73.66;101565.66;5038104;28;20092;-74
2024/01/12 05:13:29;;;;;;;1.33;0.00;;;;;;;0.35;73.70;101566.59;5039154;28;20077;-74
2024/01/12 05:15:56;;;;;;;0.10;0.00;;;;;;;0.37;73.78;101567.53;5045635;28;20080;-74
2024/01/12 05:18:23;;;;;;;1.17;0.00;;;;;;;0.37;73.55;101559.78;5042377;28;20178;-74
2024/01/12 05:20:50;;;;;;;0.00;0.00;;;;;;;0.40;73.14;101554.75;5042602;28;20081;-74
2024/01/12 05:23:19;;;;;;;0.73;0.00;;;;;;;0.40;73.43;101564.16;5044298;28;20060;-75
2024/01/12 05:25:46;;;;;;;1.05;0.00;;;;;;;0.42;73.51;101573.66;5040717;28;20495;-75
2024/01/12 05:28:13;;;;;;;0.00;0.00;;;;;;;0.43;73.59;101565.13;5043029;28;20132;-74
2024/01/12 05:30:41;;;;;;;0.10;0.00;;;;;;;0.44;73.73;101559.16;5041765;28;20049;-75
2024/01/12 05:33:08;;;;;;;0.52;0.05;;;;;;;0.46;73.25;101554.06;5038898;28;20045;-74
2024/01/12 05:35:35;;;;;;;0.52;0.00;;;;;;;0.48;73.30;101545.56;5041834;28;20488;-74
2024/01/12 05:38:02;;;;;;;1.73;0.65;;;;;;;0.50;73.36;101543.00;5040919;28;20046;-74
2024/01/12 05:40:29;;;;;;;2.40;0.08;;;;;;;0.50;73.13;101531.00;5043703;28;20102;-74
2024/01/12 05:42:56;;;;;;;0.20;0.00;;;;;;;0.52;73.18;101525.91;5040394;28;20084;-74
2024/01/12 05:45:23;;;;;;;0.65;0.00;;;;;;;0.49;73.36;101516.41;5044314;28;20508;-75
2024/01/12 05:47:51;;;;;;;2.03;0.00;;;;;;;0.55;72.81;101523.44;5042289;28;20553;-74
2024/01/12 05:50:18;;;;;;;1.55;0.08;;;;;;;0.56;72.95;101520.03;5040652;28;20068;-75
2024/01/12 05:52:47;;;;;;;1.10;0.00;;;;;;;0.58;72.98;101524.41;5043478;28;20088;-74
2024/01/12 05:55:14;;;;;;;0.25;0.00;;;;;;;0.61;73.29;101522.75;5040771;28;20037;-74
2024/01/12 05:57:41;;;;;;;0.25;0.10;;;;;;;0.63;73.12;101515.94;5043396;28;20123;-74
2024/01/12 06:00:09;;;;;;;0.28;0.05;;;;;;;0.64;73.23;101507.38;5041649;28;20466;-75
2024/01/12 06:02:36;;;;;;;1.30;0.10;;;;;;;0.65;72.62;101514.28;5040896;28;20053;-74
2024/01/12 06:05:05;;;;;;;1.23;0.00;;;;;;;0.67;73.17;101504.91;5041584;28;20100;-70
2024/01/12 06:07:32;;;;;;;0.00;0.00;;;;;;;0.69;72.71;101498.09;5041873;28;20465;-70
2024/01/12 06:09:59;;;;;;;0.20;0.00;;;;;;;0.71;72.98;101489.59;5037062;28;20073;-70
2024/01/12 06:12:26;;;;;;;1.25;0.00;;;;;;;0.72;72.25;101493.91;5042023;28;20128;-70
2024/01/12 06:14:54;;;;;;;0.20;0.00;;;;;;;0.74;72.87;101478.50;5041289;28;20076;-73
2024/01/12 06:17:21;;;;;;;0.40;0.00;;;;;;;0.76;72.40;101481.97;5041365;28;20049;-73
2024/01/12 06:19:47;;;;;;;0.05;0.00;;;;;;;0.79;72.62;101489.78;5037193;28;20136;-73
2024/01/12 06:22:16;;;;;;;1.85;0.20;;;;;;;0.81;72.30;101483.00;5039469;28;20055;-73
2024/01/12 06:24:43;;;;;;;1.30;0.00;;;;;;;0.83;72.63;101476.19;5039349;28;20080;-73
2024/01/12 06:27:10;;;;;;;0.20;0.00;;;;;;;0.86;72.46;101473.69;5042006;28;20044;-73
2024/01/12 06:29:37;;;;;;;0.25;0.00;;;;;;;0.88;72.25;101464.31;5039712;28;20128;-74
2024/01/12 06:32:05;;;;;;;1.05;1.02;;;;;;;0.90;72.34;101462.63;5040947;28;20076;-74
2024/01/12 06:34:32;;;;;;;0.30;0.00;;;;;;;0.92;71.89;101473.88;5038939;28;20099;-73
2024/01/12 06:36:59;;;;;;;0.20;0.00;;;;;;;0.95;72.03;101467.94;5039619;28;20076;-75
2024/01/12 06:39:27;;;;;;;0.30;0.08;;;;;;;0.93;72.13;101465.28;5039746;28;20150;-74
2024/01/12 06:42:05;;;;;;;1.75;0.10;;;;;;;0.98;71.81;101468.00;5115902;27;20339;-73
2024/01/12 06:44:32;;;;;;;0.70;0.00;;;;;;;0.99;71.50;101456.84;5115027;28;20143;-74
2024/01/12 06:46:59;;;;;;;0.20;0.10;;;;;;;1.01;71.90;101458.66;5115482;28;20052;-73
2024/01/12 06:49:26;;;;;;;1.85;0.05;;;;;;;1.02;71.47;101450.13;5115076;28;20130;-74
2024/01/12 06:51:53;;;;;;;0.10;0.03;;;;;;;1.03;71.68;101450.97;5108454;28;20051;-74
2024/01/12 06:54:20;;;;;;;0.35;0.00;;;;;;;1.04;71.42;101444.97;5114129;27;20071;-74
2024/01/12 06:56:47;;;;;;;1.20;0.00;;;;;;;1.06;71.20;101439.88;5114700;28;20070;-75
2024/01/12 06:59:15;;;;;;;0.32;0.00;;;;;;;1.09;71.17;101442.53;5112535;28;20111;-73
2024/01/12 07:01:42;;;;;;;0.20;0.00;;;;;;;1.06;71.07;101442.47;5114604;27;20071;-74
2024/01/12 07:04:09;;;;;;;1.00;0.10;;;;;;;0.97;71.29;101407.00;5105408;27;20072;-74
2024/01/12 07:06:36;;;;;;;0.10;0.00;;;;;;;1.11;71.29;101433.16;5114883;27;20516;-75
2024/01/12 07:09:05;;;;;;;0.38;0.20;;;;;;;1.14;70.86;101433.22;5108580;28;20072;-74
2024/01/12 07:11:31;;;;;;;0.85;0.10;;;;;;;1.16;71.14;101428.97;5115583;28;20113;-74
2024/01/12 07:13:58;;;;;;;3.35;0.00;;;;;;;1.14;70.82;101415.19;5110894;27;20485;-80
2024/01/12 07:16:26;;;;;;;0.98;0.08;;;;;;;1.18;70.74;101410.13;5112932;27;20070;-80
2024/01/12 07:18:53;;;;;;;0.10;0.03;;;;;;;1.19;70.94;101417.06;5120179;27;20071;-79
2024/01/12 07:21:20;;;;;;;0.10;0.00;;;;;;;1.20;70.63;101408.47;5112225;27;20127;-80
2024/01/12 07:23:47;;;;;;;0.17;0.00;;;;;;;1.22;70.75;101403.34;5107536;28;20498;-76
2024/01/12 07:26:14;;;;;;;0.80;0.00;;;;;;;1.24;70.56;101404.25;5110366;27;20084;-75
2024/01/12 07:28:41;;;;;;;0.20;0.10;;;;;;;1.24;70.56;101407.72;5110176;27;20076;-76
2024/01/12 07:31:08;;;;;;;0.25;0.00;;;;;;;1.27;70.63;101404.34;5110212;27;20055;-75
2024/01/12 07:33:36;;;;;;;0.65;0.00;;;;;;;1.28;70.66;101403.53;5111526;28;20484;-73
2024/01/12 07:36:03;;;;;;;1.00;0.05;;;;;;;1.31;70.61;101395.00;5099605;28;20411;-82
2024/01/12 07:38:30;;;;;;;1.85;0.00;;;;;;;1.32;70.12;101397.59;5101394;28;20073;-77
2024/01/12 07:40:57;;;;;;;0.52;0.00;;;;;;;1.33;70.08;101394.19;5112572;27;20083;-77
2024/01/12 07:43:27;;;;;;;0.38;0.10;;;;;;;1.35;70.07;101386.50;5114482;28;20082;-77
2024/01/12 07:45:54;;;;;;;1.35;0.40;;;;;;;1.36;70.23;101383.06;5112557;28;20704;-76
2024/01/12 07:48:21;;;;;;;2.72;0.10;;;;;;;1.37;70.26;101377.97;5113699;28;20067;-76
2024/01/12 07:50:50;;;;;;;0.95;0.10;;;;;;;1.38;70.09;101377.13;5100474;27;20139;-75
2024/01/12 07:53:17;;;;;;;0.20;0.03;;;;;;;1.37;69.92;101362.50;5099081;28;20457;-75
2024/01/12 07:55:44;;;;;;;0.10;0.00;;;;;;;1.41;70.27;101363.44;5087916;28;20091;-76
2024/01/12 07:58:11;;;;;;;1.52;0.00;;;;;;;1.42;70.03;101362.59;5095812;28;20086;-78
2024/01/12 08:00:38;;;;;;;0.38;0.00;;;;;;;1.43;69.71;101346.31;5083232;28;20051;-78
2024/01/12 08:03:05;;;;;;;0.32;0.00;;;;;;;1.44;69.82;101348.91;5097284;28;20107;-80
2024/01/12 08:05:32;;;;;;;0.00;0.00;;;;;;;1.45;69.72;101347.22;5095802;28;20086;-76
2024/01/12 08:08:00;;;;;;;1.40;0.10;;;;;;;1.46;69.94;101339.50;5098181;28;20793;-76
2024/01/12 08:10:27;;;;;;;1.33;0.10;;;;;;;1.48;69.47;101342.13;5093474;28;20136;-77
2024/01/12 08:12:54;;;;;;;0.85;0.05;;;;;;;1.48;69.97;101344.72;5085585;28;20585;-77
2024/01/12 08:15:21;;;;;;;0.75;0.03;;;;;;;1.50;69.78;101337.00;5098866;28;20080;-77
2024/01/12 08:17:48;;;;;;;0.20;0.10;;;;;;;1.43;69.76;101342.03;5095365;28;20074;-77
2024/01/12 08:20:15;;;;;;;0.20;0.00;;;;;;;1.52;69.49;101350.81;5089773;28;20052;-79
2024/01/12 08:22:41;;;;;;;4.22;0.10;;;;;;;1.53;69.68;101339.66;5096518;28;20082;-78
2024/01/12 08:25:10;;;;;;;0.10;0.00;;;;;;;1.54;69.69;101339.69;5097902;28;20076;-72
2024/01/12 08:27:37;;;;;;;2.28;0.10;;;;;;;1.55;69.63;101332.81;5096985;27;20048;-74
2024/01/12 08:30:05;;;;;;;1.67;0.10;;;;;;;1.55;69.81;101332.81;5095195;28;20525;-74
2024/01/12 08:32:31;;;;;;;0.10;0.00;;;;;;;1.58;69.30;101327.75;5095820;28;20578;-72
2024/01/12 08:34:58;;;;;;;0.13;0.03;;;;;;;1.59;69.25;101337.22;5096393;28;20136;-70
2024/01/12 08:37:25;;;;;;;0.15;0.00;;;;;;;1.56;69.20;101326.81;5096831;28;20083;-70
2024/01/12 08:39:52;;;;;;;1.70;0.00;;;;;;;1.61;69.22;101338.13;5096490;27;20494;-70
2024/01/12 08:42:20;;;;;;;0.03;0.03;;;;;;;1.61;69.52;101332.97;5091746;28;20044;-70
2024/01/12 08:44:47;;;;;;;0.20;0.00;;;;;;;1.62;69.05;101339.88;5093974;28;20115;-70
2024/01/12 08:47:15;;;;;;;0.57;0.00;;;;;;;1.64;69.40;101330.44;5092829;28;20123;-70
2024/01/12 08:49:42;;;;;;;1.67;0.05;;;;;;;1.65;69.20;101332.22;5092620;28;20054;-71
2024/01/12 08:52:09;;;;;;;1.40;0.20;;;;;;;1.65;68.94;101330.50;5087966;28;20089;-70
2024/01/12 08:54:36;;;;;;;3.00;0.10;;;;;;;1.67;69.33;101330.53;5092869;28;20130;-70
2024/01/12 08:57:02;;;;;;;0.20;0.00;;;;;;;1.67;69.03;101328.81;5096601;28;20142;-71
2024/01/12 08:59:31;;;;;;;0.10;0.00;;;;;;;1.69;69.21;101321.13;5088694;28;20123;-69
2024/01/12 09:01:58;;;;;;;2.38;0.10;;;;;;;1.69;69.03;101326.28;5092167;28;20079;-70
2024/01/12 09:04:25;;;;;;;0.52;0.00;;;;;;;1.69;68.88;101331.44;5086102;28;20079;-69
2024/01/12 09:06:52;;;;;;;0.08;0.00;;;;;;;1.72;68.86;101320.31;5097564;28;20044;-71
2024/01/12 09:09:19;;;;;;;0.63;0.00;;;;;;;1.72;68.86;101323.75;5095660;27;20040;-70
2024/01/12 09:11:46;;;;;;;0.00;0.00;;;;;;;1.73;69.10;101319.47;5093180;28;20652;-69
2024/01/12 09:14:13;;;;;;;3.13;0.10;;;;;;;1.74;68.79;101323.81;5087630;28;20131;-69
2024/01/12 09:16:41;;;;;;;0.00;0.00;;;;;;;1.75;68.50;101318.66;5089195;28;20115;-71
2024/01/12 09:19:09;;;;;;;0.05;0.00;;;;;;;1.73;68.63;101322.03;5093709;28;20497;-71
2024/01/12 09:21:38;;;;;;;1.27;0.10;;;;;;;1.78;68.74;101307.56;5089280;28;20044;-70
2024/01/12 09:24:06;;;;;;;0.20;0.00;;;;;;;1.79;68.73;101311.84;5091096;28;20060;-71
2024/01/12 09:26:32;;;;;;;0.10;0.00;;;;;;;1.79;68.50;101311.84;5092971;28;20098;-70
2024/01/12 09:28:59;;;;;;;2.17;0.10;;;;;;;1.80;68.72;101317.06;5094860;28;20075;-71
2024/01/12 09:31:26;;;;;;;0.65;0.00;;;;;;;1.82;68.51;101301.63;5093994;28;20124;-70
2024/01/12 09:33:55;;;;;;;1.10;0.30;;;;;;;1.72;68.43;101273.88;5091958;28;20063;-72
2024/01/12 09:36:22;;;;;;;1.17;0.25;;;;;;;1.83;68.51;101296.50;5096588;28;20564;-73
2024/01/12 09:38:49;;;;;;;0.77;0.20;;;;;;;1.82;68.33;101293.91;5094375;28;20130;-75
2024/01/12 09:41:26;;;;;;;0.13;0.10;;;;;;;1.85;68.40;101294.81;5089701;28;20131;-74
2024/01/12 09:43:58;;;;;;;1.48;0.00;;;;;;;1.87;68.30;101287.09;5092063;28;20115;-74
2024/01/12 09:46:30;;;;;;;0.00;0.00;;;;;;;1.87;68.15;101293.13;5095625;28;20083;-75
2024/01/12 09:48:59;;;;;;;0.52;0.10;;;;;;;1.88;68.38;101289.72;5089349;28;20418;-75
2024/01/12 09:51:27;;;;;;;0.85;0.10;;;;;;;1.89;68.10;101286.28;5089801;28;20086;-75
2024/01/12 09:53:55;;;;;;;0.10;0.00;;;;;;;1.89;68.05;101288.88;5086680;28;20718;-75
2024/01/12 09:56:22;;;;;;;0.05;0.00;;;;;;;1.91;67.98;101276.03;5093225;28;20074;-75
2024/01/12 09:58:50;;;;;;;0.15;0.00;;;;;;;1.88;67.83;101271.66;5095198;28;20044;-74
2024/01/12 10:01:17;;;;;;;0.68;0.00;;;;;;;1.95;68.01;101276.94;5089903;28;20426;-75
2024/01/12 10:03:47;;;;;;;1.10;0.05;;;;;;;1.96;67.87;101273.50;5095168;28;20052;-77
2024/01/12 10:06:16;;;;;;;1.40;0.10;;;;;;;1.97;68.04;101281.31;5093767;28;20071;-76
2024/01/12 10:08:43;;;;;;;0.20;0.10;;;;;;;1.98;68.09;101277.00;5094092;28;20123;-76
2024/01/12 10:11:10;;;;;;;0.17;0.10;;;;;;;1.97;67.57;101263.25;5095540;28;20055;-75
2024/01/12 10:13:37;;;;;;;0.70;0.00;;;;;;;2.00;67.85;101275.34;5092704;28;20512;-75
2024/01/12 10:16:06;;;;;;;0.80;0.10;;;;;;;2.02;67.90;101268.50;5096708;28;20168;-75
2024/01/12 10:18:33;;;;;;;4.72;0.73;;;;;;;2.02;67.80;101273.66;5096364;28;20043;-75
2024/01/12 10:21:00;;;;;;;0.20;0.10;;;;;;;1.99;67.86;101265.84;5094064;28;20660;-78
2024/01/12 10:23:29;;;;;;;1.55;0.10;;;;;;;2.03;67.82;101265.06;5077513;28;20075;-78
2024/01/12 10:25:57;;;;;;;0.88;0.10;;;;;;;2.06;67.42;101265.13;5094419;28;20089;-75
2024/01/12 10:28:24;;;;;;;0.32;0.10;;;;;;;2.06;67.79;101267.72;5089985;28;20048;-75
2024/01/12 10:30:51;;;;;;;0.73;0.10;;;;;;;2.09;67.76;101280.69;5090684;28;20075;-75
2024/01/12 10:33:18;;;;;;;0.65;0.20;;;;;;;2.09;67.75;101270.34;5095514;28;20121;-76
2024/01/12 10:35:49;;;;;;;4.00;0.30;;;;;;;2.10;67.75;101270.41;5090927;28;20048;-76
2024/01/12 10:38:16;;;;;;;0.20;0.13;;;;;;;2.11;67.74;101263.53;5093483;28;20052;-75
2024/01/12 10:40:46;;;;;;;0.63;0.20;;;;;;;2.12;67.97;101266.13;5090267;28;20471;-75
2024/01/12 10:43:19;;;;;;;0.50;0.20;;;;;;;2.13;67.55;101277.31;5095100;28;20075;-75
2024/01/12 10:45:51;;;;;;;0.50;0.30;;;;;;;2.14;67.57;101279.06;5085717;28;20048;-80
2024/01/12 10:48:25;;;;;;;0.70;0.20;;;;;;;2.12;67.72;101273.84;5083161;28;20045;-80
2024/01/12 10:50:59;;;;;;;1.00;0.20;;;;;;;2.16;67.54;101267.06;5088981;28;20086;-80
2024/01/12 10:53:34;;;;;;;0.30;0.13;;;;;;;2.18;67.53;101262.78;5088869;28;20066;-75
2024/01/12 10:56:03;;;;;;;0.23;0.03;;;;;;;2.18;67.77;101270.53;5092898;28;20039;-75
2024/01/12 10:58:30;;;;;;;0.65;0.10;;;;;;;2.20;67.59;101273.16;5084698;28;20313;-75
2024/01/12 11:00:58;;;;;;;0.68;0.00;;;;;;;2.20;67.43;101255.09;5087724;28;20072;-75
2024/01/12 11:03:27;;;;;;;1.55;0.10;;;;;;;2.21;67.58;101249.94;5093208;28;20097;-75
2024/01/12 11:05:55;;;;;;;2.67;0.20;;;;;;;2.18;67.46;101260.19;5093711;28;20090;-73
2024/01/12 11:08:23;;;;;;;3.50;0.10;;;;;;;2.22;67.40;101266.31;5095599;28;20075;-76
2024/01/12 11:10:53;;;;;;;2.83;0.20;;;;;;;2.24;67.47;101260.31;5093435;28;20128;-74
2024/01/12 11:13:23;;;;;;;1.02;0.20;;;;;;;2.24;67.37;101260.31;5094331;28;20465;-76
2024/01/12 11:15:52;;;;;;;0.70;0.10;;;;;;;2.24;66.93;101262.91;5092644;28;20054;-76
2024/01/12 11:18:19;;;;;;;0.35;0.00;;;;;;;2.26;66.79;101250.91;5088429;28;20079;-74
2024/01/12 11:20:46;;;;;;;0.08;0.00;;;;;;;2.29;66.98;101252.66;5093857;28;20051;-75
2024/01/12 11:23:14;;;;;;;0.75;0.05;;;;;;;2.30;67.17;101244.97;5093315;28;20142;-75
2024/01/12 11:25:44;;;;;;;2.40;0.03;;;;;;;2.33;66.72;101255.34;5094175;28;20130;-75
2024/01/12 11:28:11;;;;;;;0.10;0.10;;;;;;;2.33;66.91;101242.44;5096989;28;20130;-75
2024/01/12 11:30:42;;;;;;;0.00;0.00;;;;;;;2.36;67.27;101251.97;5091137;28;20577;-75
2024/01/12 11:33:10;;;;;;;1.00;0.10;;;;;;;2.23;66.68;101219.88;5094463;28;20048;-78